sensor_id;sensor_type;location;lat;lon;timestamp;P1;durP1;ratioP1;P2;durP2;ratioP2
73136;SDS011;62977;45.636;11.750;2022-09-25T00:01:07;11.88;;;7.43;;
73136;SDS011;62977;45.636;11.750;2022-09-25T00:03:36;12.10;;;7.47;;
73136;SDS011;62977;45.636;11.750;2022-09-25T00:06:06;11.30;;;7.53;;
73136;SDS011;62977;45.636;11.750;2022-09-25T00:08:34;12.52;;;7.43;;
73136;SDS011;62977;45.636;11.750;2022-09-25T00:11:22;11.70;;;8.48;;
73136;SDS011;62977;45.636;11.750;2022-09-25T00:13:52;11.45;;;7.20;;
73136;SDS011;62977;45.636;11.750;2022-09-25T00:16:21;11.15;;;7.78;;
73136;SDS011;62977;45.636;11.750;2022-09-25T00:18:50;12.73;;;8.73;;
73136;SDS011;62977;45.636;11.750;2022-09-25T00:21:36;11.80;;;7.43;;
73136;SDS011;62977;45.636;11.750;2022-09-25T00:24:04;11.10;;;7.70;;
73136;SDS011;62977;45.636;11.750;2022-09-25T00:26:35;12.60;;;8.27;;
73136;SDS011;62977;45.636;11.750;2022-09-25T00:29:04;12.15;;;8.15;;
73136;SDS011;62977;45.636;11.750;2022-09-25T00:31:32;12.97;;;8.43;;
73136;SDS011;62977;45.636;11.750;2022-09-25T00:34:00;11.90;;;7.90;;
73136;SDS011;62977;45.636;11.750;2022-09-25T00:36:28;10.60;;;7.60;;
73136;SDS011;62977;45.636;11.750;2022-09-25T00:38:55;11.60;;;7.95;;
73136;SDS011;62977;45.636;11.750;2022-09-25T00:41:23;10.88;;;8.18;;
73136;SDS011;62977;45.636;11.750;2022-09-25T00:43:53;11.53;;;7.80;;
73136;SDS011;62977;45.636;11.750;2022-09-25T00:46:29;11.90;;;8.25;;
73136;SDS011;62977;45.636;11.750;2022-09-25T00:52:02;10.48;;;7.30;;
73136;SDS011;62977;45.636;11.750;2022-09-25T00:54:35;12.65;;;8.23;;
73136;SDS011;62977;45.636;11.750;2022-09-25T00:57:07;11.57;;;7.53;;
73136;SDS011;62977;45.636;11.750;2022-09-25T00:59:37;11.23;;;7.53;;
73136;SDS011;62977;45.636;11.750;2022-09-25T01:02:09;10.50;;;7.55;;
73136;SDS011;62977;45.636;11.750;2022-09-25T01:04:38;11.48;;;7.68;;
73136;SDS011;62977;45.636;11.750;2022-09-25T01:07:07;12.13;;;7.63;;
73136;SDS011;62977;45.636;11.750;2022-09-25T01:09:35;10.87;;;7.47;;
73136;SDS011;62977;45.636;11.750;2022-09-25T01:12:02;10.85;;;6.88;;
73136;SDS011;62977;45.636;11.750;2022-09-25T01:14:30;11.35;;;7.53;;
73136;SDS011;62977;45.636;11.750;2022-09-25T01:17:00;11.30;;;7.40;;
73136;SDS011;62977;45.636;11.750;2022-09-25T01:22:39;10.97;;;7.43;;
73136;SDS011;62977;45.636;11.750;2022-09-25T01:25:34;10.95;;;7.45;;
73136;SDS011;62977;45.636;11.750;2022-09-25T01:31:39;10.35;;;7.22;;
73136;SDS011;62977;45.636;11.750;2022-09-25T01:34:15;10.82;;;7.60;;
73136;SDS011;62977;45.636;11.750;2022-09-25T01:43:16;10.27;;;7.18;;
73136;SDS011;62977;45.636;11.750;2022-09-25T01:45:55;10.88;;;7.53;;
73136;SDS011;62977;45.636;11.750;2022-09-25T01:48:27;10.48;;;7.10;;
73136;SDS011;62977;45.636;11.750;2022-09-25T01:50:59;10.93;;;7.30;;
73136;SDS011;62977;45.636;11.750;2022-09-25T01:53:40;10.38;;;7.32;;
73136;SDS011;62977;45.636;11.750;2022-09-25T01:56:16;10.27;;;7.07;;
73136;SDS011;62977;45.636;11.750;2022-09-25T01:58:54;10.95;;;7.10;;
73136;SDS011;62977;45.636;11.750;2022-09-25T02:01:27;9.75;;;6.50;;
73136;SDS011;62977;45.636;11.750;2022-09-25T02:04:01;9.53;;;7.27;;
73136;SDS011;62977;45.636;11.750;2022-09-25T02:06:52;10.23;;;6.80;;
73136;SDS011;62977;45.636;11.750;2022-09-25T02:09:35;11.85;;;7.43;;
73136;SDS011;62977;45.636;11.750;2022-09-25T02:12:26;10.93;;;7.13;;
73136;SDS011;62977;45.636;11.750;2022-09-25T02:15:15;10.70;;;7.82;;
73136;SDS011;62977;45.636;11.750;2022-09-25T02:18:12;10.20;;;6.40;;
73136;SDS011;62977;45.636;11.750;2022-09-25T02:24:01;10.23;;;7.05;;
73136;SDS011;62977;45.636;11.750;2022-09-25T02:26:46;9.85;;;7.20;;
73136;SDS011;62977;45.636;11.750;2022-09-25T02:29:15;11.18;;;7.40;;
73136;SDS011;62977;45.636;11.750;2022-09-25T02:31:46;10.07;;;7.97;;
73136;SDS011;62977;45.636;11.750;2022-09-25T02:34:22;10.45;;;7.43;;
73136;SDS011;62977;45.636;11.750;2022-09-25T02:36:49;14.45;;;7.70;;
73136;SDS011;62977;45.636;11.750;2022-09-25T02:39:18;9.93;;;7.30;;
73136;SDS011;62977;45.636;11.750;2022-09-25T02:42:02;10.88;;;7.60;;
73136;SDS011;62977;45.636;11.750;2022-09-25T02:53:02;12.27;;;7.38;;
73136;SDS011;62977;45.636;11.750;2022-09-25T02:58:20;10.47;;;6.80;;
73136;SDS011;62977;45.636;11.750;2022-09-25T03:01:02;12.65;;;7.28;;
73136;SDS011;62977;45.636;11.750;2022-09-25T03:03:31;9.68;;;7.03;;
73136;SDS011;62977;45.636;11.750;2022-09-25T03:06:00;11.13;;;7.32;;
73136;SDS011;62977;45.636;11.750;2022-09-25T03:08:30;11.55;;;7.50;;
73136;SDS011;62977;45.636;11.750;2022-09-25T03:11:04;10.27;;;7.20;;
73136;SDS011;62977;45.636;11.750;2022-09-25T03:13:33;10.52;;;6.90;;
73136;SDS011;62977;45.636;11.750;2022-09-25T03:18:28;11.52;;;7.03;;
73136;SDS011;62977;45.636;11.750;2022-09-25T03:20:56;9.73;;;6.60;;
73136;SDS011;62977;45.636;11.750;2022-09-25T03:23:24;9.50;;;6.80;;
73136;SDS011;62977;45.636;11.750;2022-09-25T03:25:52;12.00;;;7.47;;
73136;SDS011;62977;45.636;11.750;2022-09-25T03:28:19;10.68;;;7.47;;
73136;SDS011;62977;45.636;11.750;2022-09-25T03:30:54;12.73;;;7.53;;
73136;SDS011;62977;45.636;11.750;2022-09-25T03:33:31;10.43;;;7.28;;
73136;SDS011;62977;45.636;11.750;2022-09-25T03:36:12;12.90;;;8.60;;
73136;SDS011;62977;45.636;11.750;2022-09-25T03:38:41;11.98;;;7.82;;
73136;SDS011;62977;45.636;11.750;2022-09-25T03:41:11;12.07;;;8.27;;
73136;SDS011;62977;45.636;11.750;2022-09-25T03:43:40;12.48;;;8.23;;
73136;SDS011;62977;45.636;11.750;2022-09-25T03:46:09;12.77;;;8.50;;
73136;SDS011;62977;45.636;11.750;2022-09-25T03:48:38;10.97;;;8.07;;
73136;SDS011;62977;45.636;11.750;2022-09-25T03:51:07;12.90;;;8.23;;
73136;SDS011;62977;45.636;11.750;2022-09-25T03:53:34;13.27;;;8.35;;
73136;SDS011;62977;45.636;11.750;2022-09-25T03:56:02;12.25;;;8.15;;
73136;SDS011;62977;45.636;11.750;2022-09-25T03:58:30;12.57;;;8.40;;
73136;SDS011;62977;45.636;11.750;2022-09-25T04:00:56;12.97;;;8.47;;
73136;SDS011;62977;45.636;11.750;2022-09-25T04:03:26;12.05;;;7.80;;
73136;SDS011;62977;45.636;11.750;2022-09-25T04:05:53;12.95;;;8.55;;
73136;SDS011;62977;45.636;11.750;2022-09-25T04:08:21;15.35;;;8.77;;
73136;SDS011;62977;45.636;11.750;2022-09-25T04:10:49;14.30;;;8.68;;
73136;SDS011;62977;45.636;11.750;2022-09-25T04:13:15;15.00;;;8.67;;
73136;SDS011;62977;45.636;11.750;2022-09-25T04:15:43;12.65;;;8.95;;
73136;SDS011;62977;45.636;11.750;2022-09-25T04:18:10;14.27;;;8.48;;
73136;SDS011;62977;45.636;11.750;2022-09-25T04:20:36;13.70;;;9.50;;
73136;SDS011;62977;45.636;11.750;2022-09-25T04:23:02;16.27;;;9.43;;
73136;SDS011;62977;45.636;11.750;2022-09-25T04:25:28;12.70;;;9.00;;
73136;SDS011;62977;45.636;11.750;2022-09-25T04:27:55;14.07;;;9.60;;
73136;SDS011;62977;45.636;11.750;2022-09-25T04:30:23;12.70;;;9.30;;
73136;SDS011;62977;45.636;11.750;2022-09-25T04:32:49;14.52;;;9.43;;
73136;SDS011;62977;45.636;11.750;2022-09-25T04:35:34;12.38;;;9.50;;
73136;SDS011;62977;45.636;11.750;2022-09-25T04:38:00;14.43;;;9.43;;
73136;SDS011;62977;45.636;11.750;2022-09-25T04:40:27;14.18;;;9.10;;
73136;SDS011;62977;45.636;11.750;2022-09-25T04:42:54;13.30;;;9.80;;
73136;SDS011;62977;45.636;11.750;2022-09-25T04:45:24;15.10;;;10.10;;
73136;SDS011;62977;45.636;11.750;2022-09-25T04:47:51;14.00;;;9.17;;
73136;SDS011;62977;45.636;11.750;2022-09-25T04:50:18;13.38;;;9.82;;
73136;SDS011;62977;45.636;11.750;2022-09-25T04:52:48;13.63;;;9.73;;
73136;SDS011;62977;45.636;11.750;2022-09-25T04:55:15;14.20;;;10.35;;
73136;SDS011;62977;45.636;11.750;2022-09-25T04:57:49;13.45;;;10.10;;
73136;SDS011;62977;45.636;11.750;2022-09-25T05:00:17;14.13;;;10.00;;
73136;SDS011;62977;45.636;11.750;2022-09-25T05:02:46;14.80;;;9.90;;
73136;SDS011;62977;45.636;11.750;2022-09-25T05:05:12;14.23;;;10.02;;
73136;SDS011;62977;45.636;11.750;2022-09-25T05:07:40;14.88;;;10.43;;
73136;SDS011;62977;45.636;11.750;2022-09-25T05:10:15;13.88;;;9.80;;
73136;SDS011;62977;45.636;11.750;2022-09-25T05:12:41;15.00;;;10.90;;
73136;SDS011;62977;45.636;11.750;2022-09-25T05:15:07;16.35;;;10.88;;
73136;SDS011;62977;45.636;11.750;2022-09-25T05:17:34;15.13;;;11.25;;
73136;SDS011;62977;45.636;11.750;2022-09-25T05:19:59;15.60;;;10.50;;
73136;SDS011;62977;45.636;11.750;2022-09-25T05:22:27;15.93;;;11.18;;
73136;SDS011;62977;45.636;11.750;2022-09-25T05:24:53;16.83;;;11.63;;
73136;SDS011;62977;45.636;11.750;2022-09-25T05:27:18;17.07;;;11.67;;
73136;SDS011;62977;45.636;11.750;2022-09-25T05:29:45;17.55;;;11.43;;
73136;SDS011;62977;45.636;11.750;2022-09-25T05:32:11;18.00;;;12.27;;
73136;SDS011;62977;45.636;11.750;2022-09-25T05:34:37;16.95;;;11.70;;
73136;SDS011;62977;45.636;11.750;2022-09-25T05:37:02;15.07;;;11.60;;
73136;SDS011;62977;45.636;11.750;2022-09-25T05:39:28;19.70;;;12.48;;
73136;SDS011;62977;45.636;11.750;2022-09-25T05:41:53;16.77;;;12.70;;
73136;SDS011;62977;45.636;11.750;2022-09-25T05:44:19;21.87;;;14.93;;
73136;SDS011;62977;45.636;11.750;2022-09-25T05:46:45;19.73;;;13.87;;
73136;SDS011;62977;45.636;11.750;2022-09-25T05:49:11;21.23;;;14.98;;
73136;SDS011;62977;45.636;11.750;2022-09-25T05:51:36;20.70;;;14.33;;
73136;SDS011;62977;45.636;11.750;2022-09-25T05:54:02;23.35;;;15.48;;
73136;SDS011;62977;45.636;11.750;2022-09-25T05:56:28;23.03;;;15.17;;
73136;SDS011;62977;45.636;11.750;2022-09-25T05:58:54;25.17;;;16.33;;
73136;SDS011;62977;45.636;11.750;2022-09-25T06:01:22;23.73;;;15.15;;
73136;SDS011;62977;45.636;11.750;2022-09-25T06:03:48;23.63;;;15.23;;
73136;SDS011;62977;45.636;11.750;2022-09-25T06:06:14;21.15;;;14.85;;
73136;SDS011;62977;45.636;11.750;2022-09-25T06:08:40;21.13;;;14.70;;
73136;SDS011;62977;45.636;11.750;2022-09-25T06:11:05;22.17;;;13.73;;
73136;SDS011;62977;45.636;11.750;2022-09-25T06:13:32;20.13;;;14.48;;
73136;SDS011;62977;45.636;11.750;2022-09-25T06:15:59;20.65;;;13.70;;
73136;SDS011;62977;45.636;11.750;2022-09-25T06:18:25;20.37;;;13.37;;
73136;SDS011;62977;45.636;11.750;2022-09-25T06:20:57;19.45;;;12.90;;
73136;SDS011;62977;45.636;11.750;2022-09-25T06:23:25;17.73;;;11.85;;
73136;SDS011;62977;45.636;11.750;2022-09-25T06:25:51;18.85;;;12.18;;
73136;SDS011;62977;45.636;11.750;2022-09-25T06:28:17;19.90;;;12.50;;
73136;SDS011;62977;45.636;11.750;2022-09-25T06:30:43;19.77;;;12.07;;
73136;SDS011;62977;45.636;11.750;2022-09-25T06:33:10;16.15;;;11.40;;
73136;SDS011;62977;45.636;11.750;2022-09-25T06:35:46;15.90;;;11.63;;
73136;SDS011;62977;45.636;11.750;2022-09-25T06:38:14;18.00;;;12.25;;
73136;SDS011;62977;45.636;11.750;2022-09-25T06:40:41;16.40;;;11.57;;
73136;SDS011;62977;45.636;11.750;2022-09-25T06:43:10;16.25;;;11.63;;
73136;SDS011;62977;45.636;11.750;2022-09-25T06:45:37;17.10;;;11.43;;
73136;SDS011;62977;45.636;11.750;2022-09-25T06:48:10;16.73;;;10.93;;
73136;SDS011;62977;45.636;11.750;2022-09-25T06:50:50;15.55;;;11.40;;
73136;SDS011;62977;45.636;11.750;2022-09-25T06:53:18;16.92;;;10.95;;
73136;SDS011;62977;45.636;11.750;2022-09-25T06:55:45;13.90;;;10.50;;
73136;SDS011;62977;45.636;11.750;2022-09-25T06:58:21;15.83;;;11.10;;
73136;SDS011;62977;45.636;11.750;2022-09-25T07:00:48;16.30;;;10.82;;
73136;SDS011;62977;45.636;11.750;2022-09-25T07:03:15;20.15;;;12.07;;
73136;SDS011;62977;45.636;11.750;2022-09-25T07:06:00;15.25;;;10.60;;
73136;SDS011;62977;45.636;11.750;2022-09-25T07:08:26;13.15;;;9.75;;
73136;SDS011;62977;45.636;11.750;2022-09-25T07:10:53;15.87;;;9.87;;
73136;SDS011;62977;45.636;11.750;2022-09-25T07:13:21;13.82;;;9.88;;
73136;SDS011;62977;45.636;11.750;2022-09-25T07:15:49;12.85;;;9.85;;
73136;SDS011;62977;45.636;11.750;2022-09-25T07:18:19;13.80;;;9.65;;
73136;SDS011;62977;45.636;11.750;2022-09-25T07:20:45;14.32;;;9.90;;
73136;SDS011;62977;45.636;11.750;2022-09-25T07:23:14;13.73;;;9.07;;
73136;SDS011;62977;45.636;11.750;2022-09-25T07:25:42;13.57;;;8.98;;
73136;SDS011;62977;45.636;11.750;2022-09-25T07:28:08;11.45;;;8.68;;
73136;SDS011;62977;45.636;11.750;2022-09-25T07:30:36;12.75;;;8.70;;
73136;SDS011;62977;45.636;11.750;2022-09-25T07:33:02;10.33;;;7.60;;
73136;SDS011;62977;45.636;11.750;2022-09-25T07:35:28;11.07;;;7.55;;
73136;SDS011;62977;45.636;11.750;2022-09-25T07:37:54;10.60;;;7.03;;
73136;SDS011;62977;45.636;11.750;2022-09-25T07:40:23;10.53;;;7.10;;
73136;SDS011;62977;45.636;11.750;2022-09-25T07:42:59;11.00;;;7.78;;
73136;SDS011;62977;45.636;11.750;2022-09-25T07:45:25;9.65;;;6.65;;
73136;SDS011;62977;45.636;11.750;2022-09-25T07:47:55;9.95;;;7.28;;
73136;SDS011;62977;45.636;11.750;2022-09-25T07:50:21;11.63;;;7.72;;
73136;SDS011;62977;45.636;11.750;2022-09-25T07:52:47;10.10;;;6.70;;
73136;SDS011;62977;45.636;11.750;2022-09-25T07:55:13;11.82;;;6.75;;
73136;SDS011;62977;45.636;11.750;2022-09-25T07:57:39;9.77;;;6.30;;
73136;SDS011;62977;45.636;11.750;2022-09-25T08:00:06;8.38;;;5.97;;
73136;SDS011;62977;45.636;11.750;2022-09-25T08:02:32;9.07;;;6.15;;
73136;SDS011;62977;45.636;11.750;2022-09-25T08:04:59;8.50;;;5.97;;
73136;SDS011;62977;45.636;11.750;2022-09-25T08:07:26;8.77;;;5.93;;
73136;SDS011;62977;45.636;11.750;2022-09-25T08:09:52;10.55;;;6.15;;
73136;SDS011;62977;45.636;11.750;2022-09-25T08:12:18;8.18;;;5.78;;
73136;SDS011;62977;45.636;11.750;2022-09-25T08:14:47;8.30;;;5.60;;
73136;SDS011;62977;45.636;11.750;2022-09-25T08:17:13;8.40;;;5.90;;
73136;SDS011;62977;45.636;11.750;2022-09-25T08:19:38;10.38;;;5.82;;
73136;SDS011;62977;45.636;11.750;2022-09-25T08:22:04;8.30;;;5.53;;
73136;SDS011;62977;45.636;11.750;2022-09-25T08:24:30;8.95;;;5.60;;
73136;SDS011;62977;45.636;11.750;2022-09-25T08:26:55;10.10;;;6.20;;
73136;SDS011;62977;45.636;11.750;2022-09-25T08:29:21;8.40;;;5.82;;
73136;SDS011;62977;45.636;11.750;2022-09-25T08:31:47;8.50;;;6.07;;
73136;SDS011;62977;45.636;11.750;2022-09-25T08:34:13;8.80;;;5.95;;
73136;SDS011;62977;45.636;11.750;2022-09-25T08:36:40;9.07;;;5.88;;
73136;SDS011;62977;45.636;11.750;2022-09-25T08:39:06;7.57;;;5.37;;
73136;SDS011;62977;45.636;11.750;2022-09-25T08:41:33;8.18;;;5.57;;
73136;SDS011;62977;45.636;11.750;2022-09-25T08:44:30;8.85;;;5.45;;
73136;SDS011;62977;45.636;11.750;2022-09-25T08:47:18;8.10;;;5.57;;
73136;SDS011;62977;45.636;11.750;2022-09-25T08:50:09;8.45;;;5.47;;
73136;SDS011;62977;45.636;11.750;2022-09-25T08:52:41;9.57;;;5.50;;
73136;SDS011;62977;45.636;11.750;2022-09-25T08:58:12;9.40;;;4.90;;
73136;SDS011;62977;45.636;11.750;2022-09-25T09:01:05;8.10;;;4.43;;
73136;SDS011;62977;45.636;11.750;2022-09-25T09:03:32;8.02;;;4.68;;
73136;SDS011;62977;45.636;11.750;2022-09-25T09:06:06;7.97;;;4.70;;
73136;SDS011;62977;45.636;11.750;2022-09-25T09:08:36;7.22;;;4.70;;
73136;SDS011;62977;45.636;11.750;2022-09-25T09:11:05;6.80;;;4.80;;
73136;SDS011;62977;45.636;11.750;2022-09-25T09:19:06;6.78;;;4.53;;
73136;SDS011;62977;45.636;11.750;2022-09-25T09:21:37;6.45;;;4.00;;
73136;SDS011;62977;45.636;11.750;2022-09-25T09:26:56;8.23;;;4.27;;
73136;SDS011;62977;45.636;11.750;2022-09-25T10:02:42;5.03;;;3.03;;
73136;SDS011;62977;45.636;11.750;2022-09-25T10:07:59;5.33;;;3.40;;
73136;SDS011;62977;45.636;11.750;2022-09-25T10:10:32;5.80;;;4.00;;
73136;SDS011;62977;45.636;11.750;2022-09-25T10:13:03;5.88;;;3.67;;
73136;SDS011;62977;45.636;11.750;2022-09-25T10:15:37;5.82;;;3.83;;
73136;SDS011;62977;45.636;11.750;2022-09-25T10:18:06;5.25;;;3.60;;
73136;SDS011;62977;45.636;11.750;2022-09-25T10:20:35;7.03;;;3.53;;
73136;SDS011;62977;45.636;11.750;2022-09-25T10:23:29;5.40;;;3.30;;
73136;SDS011;62977;45.636;11.750;2022-09-25T10:26:03;6.38;;;3.75;;
73136;SDS011;62977;45.636;11.750;2022-09-25T10:28:48;5.72;;;3.47;;
73136;SDS011;62977;45.636;11.750;2022-09-25T10:31:15;5.93;;;3.20;;
73136;SDS011;62977;45.636;11.750;2022-09-25T10:33:42;6.40;;;3.53;;
73136;SDS011;62977;45.636;11.750;2022-09-25T10:36:30;6.18;;;3.70;;
73136;SDS011;62977;45.636;11.750;2022-09-25T10:38:58;6.78;;;3.67;;
73136;SDS011;62977;45.636;11.750;2022-09-25T10:41:26;6.93;;;4.13;;
73136;SDS011;62977;45.636;11.750;2022-09-25T10:43:54;6.73;;;3.63;;
73136;SDS011;62977;45.636;11.750;2022-09-25T10:46:26;6.07;;;3.67;;
73136;SDS011;62977;45.636;11.750;2022-09-25T10:52:19;5.90;;;3.60;;
73136;SDS011;62977;45.636;11.750;2022-09-25T10:54:46;6.40;;;3.83;;
73136;SDS011;62977;45.636;11.750;2022-09-25T10:57:13;5.83;;;3.50;;
73136;SDS011;62977;45.636;11.750;2022-09-25T10:59:57;5.68;;;3.10;;
73136;SDS011;62977;45.636;11.750;2022-09-25T11:02:38;5.38;;;3.38;;
73136;SDS011;62977;45.636;11.750;2022-09-25T11:05:06;7.93;;;3.80;;
73136;SDS011;62977;45.636;11.750;2022-09-25T11:07:45;6.68;;;3.78;;
73136;SDS011;62977;45.636;11.750;2022-09-25T11:10:20;6.53;;;3.50;;
73136;SDS011;62977;45.636;11.750;2022-09-25T11:12:47;5.97;;;3.25;;
73136;SDS011;62977;45.636;11.750;2022-09-25T11:15:18;5.85;;;3.13;;
73136;SDS011;62977;45.636;11.750;2022-09-25T11:17:46;5.50;;;2.88;;
73136;SDS011;62977;45.636;11.750;2022-09-25T11:30:55;5.47;;;2.53;;
73136;SDS011;62977;45.636;11.750;2022-09-25T11:33:33;4.07;;;2.30;;
73136;SDS011;62977;45.636;11.750;2022-09-25T11:38:54;5.30;;;2.80;;
73136;SDS011;62977;45.636;11.750;2022-09-25T11:41:43;5.25;;;3.10;;
73136;SDS011;62977;45.636;11.750;2022-09-25T11:49:40;3.43;;;1.87;;
73136;SDS011;62977;45.636;11.750;2022-09-25T12:00:48;3.42;;;1.70;;
73136;SDS011;62977;45.636;11.750;2022-09-25T12:06:13;3.67;;;1.40;;
73136;SDS011;62977;45.636;11.750;2022-09-25T12:09:04;3.55;;;1.60;;
73136;SDS011;62977;45.636;11.750;2022-09-25T12:11:56;2.55;;;1.20;;
73136;SDS011;62977;45.636;11.750;2022-09-25T12:25:27;2.33;;;1.30;;
73136;SDS011;62977;45.636;11.750;2022-09-25T12:28:19;3.50;;;1.33;;
73136;SDS011;62977;45.636;11.750;2022-09-25T12:33:40;2.75;;;1.27;;
73136;SDS011;62977;45.636;11.750;2022-09-25T12:36:34;3.25;;;1.38;;
73136;SDS011;62977;45.636;11.750;2022-09-25T12:39:48;4.95;;;1.50;;
73136;SDS011;62977;45.636;11.750;2022-09-25T12:42:40;2.80;;;1.45;;
73136;SDS011;62977;45.636;11.750;2022-09-25T12:47:41;3.90;;;1.60;;
73136;SDS011;62977;45.636;11.750;2022-09-25T12:50:15;4.68;;;1.83;;
73136;SDS011;62977;45.636;11.750;2022-09-25T12:52:47;4.47;;;1.90;;
73136;SDS011;62977;45.636;11.750;2022-09-25T13:00:46;6.07;;;2.15;;
73136;SDS011;62977;45.636;11.750;2022-09-25T13:05:48;6.88;;;2.17;;
73136;SDS011;62977;45.636;11.750;2022-09-25T13:11:11;3.50;;;1.87;;
73136;SDS011;62977;45.636;11.750;2022-09-25T13:13:50;6.00;;;2.55;;
73136;SDS011;62977;45.636;11.750;2022-09-25T13:16:19;5.20;;;2.00;;
73136;SDS011;62977;45.636;11.750;2022-09-25T13:21:36;5.57;;;1.90;;
73136;SDS011;62977;45.636;11.750;2022-09-25T13:24:04;3.20;;;1.53;;
73136;SDS011;62977;45.636;11.750;2022-09-25T13:26:45;6.10;;;2.10;;
73136;SDS011;62977;45.636;11.750;2022-09-25T13:29:21;3.95;;;1.80;;
73136;SDS011;62977;45.636;11.750;2022-09-25T13:34:44;6.45;;;2.00;;
73136;SDS011;62977;45.636;11.750;2022-09-25T13:37:11;3.03;;;1.50;;
73136;SDS011;62977;45.636;11.750;2022-09-25T13:39:48;2.75;;;1.40;;
73136;SDS011;62977;45.636;11.750;2022-09-25T13:42:33;2.05;;;1.25;;
73136;SDS011;62977;45.636;11.750;2022-09-25T13:47:57;3.20;;;1.30;;
73136;SDS011;62977;45.636;11.750;2022-09-25T13:50:43;3.03;;;1.20;;
73136;SDS011;62977;45.636;11.750;2022-09-25T13:53:21;3.10;;;1.35;;
73136;SDS011;62977;45.636;11.750;2022-09-25T13:58:18;4.50;;;1.90;;
73136;SDS011;62977;45.636;11.750;2022-09-25T14:06:09;3.13;;;1.70;;
73136;SDS011;62977;45.636;11.750;2022-09-25T14:08:39;3.88;;;1.80;;
73136;SDS011;62977;45.636;11.750;2022-09-25T14:11:07;3.67;;;1.50;;
73136;SDS011;62977;45.636;11.750;2022-09-25T14:13:36;2.90;;;1.40;;
73136;SDS011;62977;45.636;11.750;2022-09-25T14:16:07;3.63;;;1.80;;
73136;SDS011;62977;45.636;11.750;2022-09-25T14:18:41;4.95;;;1.92;;
73136;SDS011;62977;45.636;11.750;2022-09-25T14:21:10;3.28;;;2.03;;
73136;SDS011;62977;45.636;11.750;2022-09-25T14:26:21;4.43;;;2.20;;
73136;SDS011;62977;45.636;11.750;2022-09-25T14:28:49;5.35;;;1.90;;
73136;SDS011;62977;45.636;11.750;2022-09-25T14:37:05;5.57;;;3.67;;
73136;SDS011;62977;45.636;11.750;2022-09-25T14:48:25;6.43;;;3.40;;
73136;SDS011;62977;45.636;11.750;2022-09-25T14:51:02;4.80;;;3.13;;
73136;SDS011;62977;45.636;11.750;2022-09-25T14:53:39;5.45;;;3.33;;
73136;SDS011;62977;45.636;11.750;2022-09-25T14:56:10;5.80;;;3.60;;
73136;SDS011;62977;45.636;11.750;2022-09-25T14:58:43;7.65;;;5.05;;
73136;SDS011;62977;45.636;11.750;2022-09-25T15:01:23;6.57;;;3.53;;
73136;SDS011;62977;45.636;11.750;2022-09-25T15:04:03;6.57;;;4.47;;
73136;SDS011;62977;45.636;11.750;2022-09-25T15:06:31;7.60;;;4.80;;
73136;SDS011;62977;45.636;11.750;2022-09-25T15:08:58;8.00;;;4.50;;
73136;SDS011;62977;45.636;11.750;2022-09-25T15:11:40;6.65;;;3.90;;
73136;SDS011;62977;45.636;11.750;2022-09-25T15:14:08;6.63;;;4.50;;
73136;SDS011;62977;45.636;11.750;2022-09-25T15:16:35;6.73;;;4.07;;
73136;SDS011;62977;45.636;11.750;2022-09-25T15:19:25;6.63;;;4.10;;
73136;SDS011;62977;45.636;11.750;2022-09-25T15:21:54;7.45;;;4.13;;
73136;SDS011;62977;45.636;11.750;2022-09-25T15:24:21;7.75;;;4.80;;
73136;SDS011;62977;45.636;11.750;2022-09-25T15:26:58;10.30;;;4.53;;
73136;SDS011;62977;45.636;11.750;2022-09-25T15:29:32;8.95;;;5.30;;
73136;SDS011;62977;45.636;11.750;2022-09-25T15:32:05;8.32;;;5.90;;
73136;SDS011;62977;45.636;11.750;2022-09-25T15:34:31;11.15;;;6.15;;
73136;SDS011;62977;45.636;11.750;2022-09-25T15:37:17;9.30;;;6.20;;
73136;SDS011;62977;45.636;11.750;2022-09-25T15:39:50;7.53;;;5.35;;
73136;SDS011;62977;45.636;11.750;2022-09-25T15:42:16;7.05;;;4.90;;
73136;SDS011;62977;45.636;11.750;2022-09-25T15:44:42;9.00;;;6.57;;
73136;SDS011;62977;45.636;11.750;2022-09-25T15:50:04;9.07;;;6.17;;
73136;SDS011;62977;45.636;11.750;2022-09-25T15:52:39;7.57;;;5.05;;
73136;SDS011;62977;45.636;11.750;2022-09-25T15:55:08;7.55;;;5.43;;
73136;SDS011;62977;45.636;11.750;2022-09-25T15:57:38;8.98;;;5.60;;
73136;SDS011;62977;45.636;11.750;2022-09-25T16:00:06;10.03;;;6.50;;
73136;SDS011;62977;45.636;11.750;2022-09-25T16:02:56;8.25;;;6.05;;
73136;SDS011;62977;45.636;11.750;2022-09-25T16:05:47;8.60;;;6.60;;
73136;SDS011;62977;45.636;11.750;2022-09-25T16:10:48;11.68;;;6.97;;
73136;SDS011;62977;45.636;11.750;2022-09-25T16:13:26;12.70;;;7.63;;
73136;SDS011;62977;45.636;11.750;2022-09-25T16:15:52;11.32;;;8.43;;
73136;SDS011;62977;45.636;11.750;2022-09-25T16:24:04;11.50;;;8.33;;
73136;SDS011;62977;45.636;11.750;2022-09-25T16:31:32;12.90;;;8.82;;
73136;SDS011;62977;45.636;11.750;2022-09-25T16:34:00;12.13;;;9.07;;
73136;SDS011;62977;45.636;11.750;2022-09-25T16:36:27;12.70;;;8.50;;
73136;SDS011;62977;45.636;11.750;2022-09-25T16:41:34;13.30;;;8.18;;
73136;SDS011;62977;45.636;11.750;2022-09-25T16:44:10;11.90;;;9.13;;
73136;SDS011;62977;45.636;11.750;2022-09-25T16:46:39;11.93;;;9.57;;
73136;SDS011;62977;45.636;11.750;2022-09-25T16:49:09;11.60;;;8.87;;
73136;SDS011;62977;45.636;11.750;2022-09-25T16:51:39;12.23;;;9.30;;
73136;SDS011;62977;45.636;11.750;2022-09-25T16:54:09;14.43;;;9.73;;
73136;SDS011;62977;45.636;11.750;2022-09-25T16:56:40;12.52;;;9.15;;
73136;SDS011;62977;45.636;11.750;2022-09-25T16:59:26;16.65;;;12.32;;
73136;SDS011;62977;45.636;11.750;2022-09-25T17:01:53;13.37;;;10.57;;
73136;SDS011;62977;45.636;11.750;2022-09-25T17:04:25;13.05;;;10.57;;
73136;SDS011;62977;45.636;11.750;2022-09-25T17:06:53;14.13;;;10.00;;
73136;SDS011;62977;45.636;11.750;2022-09-25T17:09:24;15.70;;;10.75;;
73136;SDS011;62977;45.636;11.750;2022-09-25T17:12:03;14.73;;;10.55;;
73136;SDS011;62977;45.636;11.750;2022-09-25T17:14:34;12.93;;;10.30;;
73136;SDS011;62977;45.636;11.750;2022-09-25T17:17:00;14.40;;;10.40;;
73136;SDS011;62977;45.636;11.750;2022-09-25T17:19:26;14.45;;;10.75;;
73136;SDS011;62977;45.636;11.750;2022-09-25T17:21:52;14.50;;;11.02;;
73136;SDS011;62977;45.636;11.750;2022-09-25T17:24:20;13.73;;;9.60;;
73136;SDS011;62977;45.636;11.750;2022-09-25T17:26:48;14.50;;;10.13;;
73136;SDS011;62977;45.636;11.750;2022-09-25T17:29:17;14.40;;;10.63;;
73136;SDS011;62977;45.636;11.750;2022-09-25T17:31:44;15.80;;;10.27;;
73136;SDS011;62977;45.636;11.750;2022-09-25T17:34:17;14.98;;;10.63;;
73136;SDS011;62977;45.636;11.750;2022-09-25T17:36:49;15.40;;;10.50;;
73136;SDS011;62977;45.636;11.750;2022-09-25T17:39:15;12.85;;;9.55;;
73136;SDS011;62977;45.636;11.750;2022-09-25T17:41:41;11.48;;;9.13;;
73136;SDS011;62977;45.636;11.750;2022-09-25T17:44:11;12.70;;;9.00;;
73136;SDS011;62977;45.636;11.750;2022-09-25T17:46:41;12.20;;;8.75;;
73136;SDS011;62977;45.636;11.750;2022-09-25T17:49:07;10.45;;;8.27;;
73136;SDS011;62977;45.636;11.750;2022-09-25T17:51:33;11.35;;;7.55;;
73136;SDS011;62977;45.636;11.750;2022-09-25T17:54:00;11.63;;;8.10;;
73136;SDS011;62977;45.636;11.750;2022-09-25T17:56:27;12.90;;;7.80;;
73136;SDS011;62977;45.636;11.750;2022-09-25T17:58:58;10.70;;;7.18;;
73136;SDS011;62977;45.636;11.750;2022-09-25T18:01:27;12.57;;;7.88;;